Time;durP1;ratioP1;P1;durP2;ratioP2;P2;SDS_P1;SDS_P2;PMS_P1;PMS_P2;Temp;Humidity;BMP_temperature;BMP_pressure;BME280_temperature;BME280_humidity;BME280_pressure;Samples;Min_cycle;Max_cycle;Signal;HPM_P1;HPM_P2
2022/01/08 00:01:57;;;;;;;2.70;0.73;;;;;;;;;;5099107;28;20103;-70
2022/01/08 00:04:23;;;;;;;1.70;0.60;;;;;;;;;;5077580;28;20074;-70
2022/01/08 00:06:49;;;;;;;2.17;0.77;;;;;;;;;;5072491;28;20067;-70
2022/01/08 00:09:15;;;;;;;2.65;0.93;;;;;;;;;;5086300;28;20467;-70
2022/01/08 00:11:42;;;;;;;1.70;0.60;;;;;;;;;;5084471;28;20103;-70
2022/01/08 00:14:10;;;;;;;1.35;0.63;;;;;;;;;;5082741;28;20571;-69
2022/01/08 00:16:37;;;;;;;4.13;0.77;;;;;;;;;;5066659;28;20022;-70
2022/01/08 00:19:04;;;;;;;1.95;0.80;;;;;;;;;;5081122;28;20020;-70
2022/01/08 00:21:30;;;;;;;2.15;0.65;;;;;;;;;;5084201;28;20038;-71
2022/01/08 00:23:56;;;;;;;4.90;0.75;;;;;;;;;;5089015;28;20028;-70
2022/01/08 00:26:22;;;;;;;9.50;0.77;;;;;;;;;;5086391;28;20482;-70
2022/01/08 00:28:48;;;;;;;2.45;0.90;;;;;;;;;;5080634;28;20076;-70
2022/01/08 00:31:14;;;;;;;6.78;0.80;;;;;;;;;;5073929;28;20032;-70
2022/01/08 00:33:40;;;;;;;8.15;0.70;;;;;;;;;;5073698;28;20020;-71
2022/01/08 00:36:07;;;;;;;3.20;0.65;;;;;;;;;;5083858;28;20399;-71
2022/01/08 00:38:33;;;;;;;2.53;0.70;;;;;;;;;;5096231;28;20517;-71
2022/01/08 00:40:59;;;;;;;1.25;0.60;;;;;;;;;;5084380;28;20380;-71
2022/01/08 00:43:25;;;;;;;4.13;0.70;;;;;;;;;;5085483;28;20093;-71
2022/01/08 00:45:51;;;;;;;3.13;0.73;;;;;;;;;;5089453;28;20055;-71
2022/01/08 00:48:17;;;;;;;1.65;0.68;;;;;;;;;;5093433;28;20111;-71
2022/01/08 00:50:43;;;;;;;2.67;0.60;;;;;;;;;;5082872;28;20157;-71
2022/01/08 00:53:09;;;;;;;1.73;0.80;;;;;;;;;;5092592;28;20028;-71
2022/01/08 00:55:35;;;;;;;7.00;0.70;;;;;;;;;;5076213;28;20044;-71
2022/01/08 00:58:01;;;;;;;1.92;0.70;;;;;;;;;;5093599;28;20149;-71
2022/01/08 01:00:27;;;;;;;2.15;0.70;;;;;;;;;;5099284;28;20047;-72
2022/01/08 01:02:53;;;;;;;2.65;0.70;;;;;;;;;;5092899;28;20028;-71
2022/01/08 01:05:20;;;;;;;7.60;0.90;;;;;;;;;;5087410;28;20028;-71
2022/01/08 01:07:46;;;;;;;2.63;0.60;;;;;;;;;;5092029;28;20032;-71
2022/01/08 01:10:12;;;;;;;2.20;0.77;;;;;;;;;;5089117;28;20036;-71
2022/01/08 01:12:39;;;;;;;22.23;0.98;;;;;;;;;;5082676;28;20051;-71
2022/01/08 01:15:05;;;;;;;3.08;0.93;;;;;;;;;;5074733;28;20491;-71
2022/01/08 01:17:31;;;;;;;7.38;0.95;;;;;;;;;;5076941;28;20020;-72
2022/01/08 01:19:57;;;;;;;1.23;0.60;;;;;;;;;;5093191;28;20016;-71
2022/01/08 01:22:28;;;;;;;1.75;0.65;;;;;;;;;;5093105;28;20368;-71
2022/01/08 01:25:01;;;;;;;3.80;0.77;;;;;;;;;;5077650;28;20015;-71
2022/01/08 01:27:58;;;;;;;4.25;0.63;;;;;;;;;;5089359;28;20119;-71
2022/01/08 01:30:28;;;;;;;2.75;0.80;;;;;;;;;;5084911;28;20131;-70
2022/01/08 01:47:00;;;;;;;5.25;0.65;;;;;;;;;;5093128;28;20045;-71
2022/01/08 01:49:09;;;;;;;2.28;0.70;;;;;;;;;;5087408;28;20047;-71
2022/01/08 01:51:36;;;;;;;1.70;0.70;;;;;;;;;;5073828;28;20029;-70
2022/01/08 01:54:02;;;;;;;5.05;1.00;;;;;;;;;;5093718;28;20106;-70
2022/01/08 01:56:28;;;;;;;2.55;0.70;;;;;;;;;;5088930;28;20029;-70
2022/01/08 01:58:54;;;;;;;2.67;0.70;;;;;;;;;;5086756;28;20028;-71
2022/01/08 02:01:20;;;;;;;2.13;0.75;;;;;;;;;;5085264;28;20107;-71
2022/01/08 02:03:46;;;;;;;1.38;0.73;;;;;;;;;;5089698;28;20070;-70
2022/01/08 02:06:12;;;;;;;2.70;0.70;;;;;;;;;;5090541;28;20031;-70
2022/01/08 02:08:39;;;;;;;4.45;0.65;;;;;;;;;;5095848;28;20043;-71
2022/01/08 02:11:06;;;;;;;2.35;0.70;;;;;;;;;;5079509;28;20023;-71
2022/01/08 02:13:33;;;;;;;1.92;0.50;;;;;;;;;;5085998;28;20020;-71
2022/01/08 02:16:01;;;;;;;1.23;0.60;;;;;;;;;;5093307;28;20125;-71
2022/01/08 02:18:27;;;;;;;4.38;1.17;;;;;;;;;;5093337;28;20023;-71
2022/01/08 02:20:57;;;;;;;2.35;0.80;;;;;;;;;;5096268;28;20031;-70
2022/01/08 02:23:23;;;;;;;2.08;0.90;;;;;;;;;;5096729;28;20027;-71
2022/01/08 02:25:50;;;;;;;1.83;0.60;;;;;;;;;;5097030;28;20061;-72
2022/01/08 02:28:17;;;;;;;2.58;0.70;;;;;;;;;;5089180;28;20048;-70
2022/01/08 02:30:43;;;;;;;2.85;0.80;;;;;;;;;;5083595;28;20044;-70
2022/01/08 02:33:09;;;;;;;3.13;0.80;;;;;;;;;;5088964;28;20491;-70
2022/01/08 02:35:35;;;;;;;1.25;0.65;;;;;;;;;;5081798;28;20400;-70
2022/01/08 02:38:01;;;;;;;3.45;0.88;;;;;;;;;;5067566;28;20488;-71
2022/01/08 02:40:27;;;;;;;3.35;0.80;;;;;;;;;;5083521;28;20382;-71
2022/01/08 02:43:00;;;;;;;2.97;0.80;;;;;;;;;;5087123;28;20027;-71
2022/01/08 02:45:26;;;;;;;;;;;;;;;;;;5095408;28;20024;-71
2022/01/08 02:47:52;;;;;;;2.40;0.68;;;;;;;;;;5087291;28;19908;-70
2022/01/08 02:50:18;;;;;;;2.28;0.70;;;;;;;;;;5082636;28;20041;-71
2022/01/08 02:52:45;;;;;;;10.25;1.05;;;;;;;;;;5072409;28;20069;-71
2022/01/08 02:55:13;;;;;;;5.60;0.70;;;;;;;;;;5068970;28;20019;-70
2022/01/08 02:57:39;;;;;;;5.65;0.80;;;;;;;;;;5085334;28;20032;-70
2022/01/08 03:00:07;;;;;;;4.93;0.60;;;;;;;;;;5069997;28;20024;-72
2022/01/08 03:02:33;;;;;;;2.83;0.70;;;;;;;;;;5097754;28;20062;-72
2022/01/08 03:04:59;;;;;;;5.32;0.95;;;;;;;;;;5091171;28;20040;-72
2022/01/08 03:07:25;;;;;;;4.28;0.82;;;;;;;;;;5086395;28;20039;-72
2022/01/08 03:09:57;;;;;;;1.60;0.70;;;;;;;;;;5084799;28;20040;-72
2022/01/08 03:12:24;;;;;;;1.50;0.65;;;;;;;;;;5071029;28;20020;-71
2022/01/08 03:14:50;;;;;;;4.45;0.75;;;;;;;;;;5084455;28;20473;-71
2022/01/08 03:17:16;;;;;;;1.85;0.70;;;;;;;;;;5075996;28;20020;-71
2022/01/08 03:19:42;;;;;;;3.03;0.68;;;;;;;;;;5088796;28;20116;-71
2022/01/08 03:22:10;;;;;;;2.97;0.80;;;;;;;;;;5063200;28;20032;-71
2022/01/08 03:24:36;;;;;;;2.33;1.13;;;;;;;;;;5069700;28;20025;-72
2022/01/08 03:27:02;;;;;;;2.05;0.70;;;;;;;;;;5072509;28;20056;-71
2022/01/08 03:29:28;;;;;;;3.35;0.70;;;;;;;;;;5092472;28;20032;-71
2022/01/08 03:31:54;;;;;;;2.55;0.80;;;;;;;;;;5092491;28;20032;-71
2022/01/08 03:34:21;;;;;;;9.23;0.70;;;;;;;;;;5072307;28;20028;-72
2022/01/08 03:36:47;;;;;;;3.38;0.65;;;;;;;;;;5088217;28;20063;-72
2022/01/08 03:39:13;;;;;;;1.60;0.60;;;;;;;;;;5088115;28;20667;-71
2022/01/08 03:41:39;;;;;;;3.50;0.77;;;;;;;;;;5083288;28;20479;-71
2022/01/08 03:44:05;;;;;;;5.25;0.70;;;;;;;;;;5084764;28;20036;-72
2022/01/08 03:46:35;;;;;;;3.65;0.88;;;;;;;;;;5090574;28;20095;-72
2022/01/08 03:51:27;;;;;;;6.95;0.70;;;;;;;;;;5089448;28;20142;-71
2022/01/08 03:53:53;;;;;;;7.65;0.70;;;;;;;;;;5094703;28;20012;-71
2022/01/08 03:56:19;;;;;;;2.17;0.75;;;;;;;;;;5089591;28;20097;-71
2022/01/08 03:58:45;;;;;;;2.25;0.85;;;;;;;;;;5083346;28;20033;-71
2022/01/08 04:01:11;;;;;;;2.15;0.70;;;;;;;;;;5077009;28;20039;-71
2022/01/08 04:03:37;;;;;;;2.17;0.63;;;;;;;;;;5094065;28;20067;-71
2022/01/08 04:06:03;;;;;;;1.80;0.55;;;;;;;;;;5084346;28;20043;-71
2022/01/08 04:08:29;;;;;;;1.98;0.90;;;;;;;;;;5097341;28;20039;-72
2022/01/08 04:10:55;;;;;;;2.17;0.68;;;;;;;;;;5076041;28;20035;-72
2022/01/08 04:13:28;;;;;;;3.95;0.90;;;;;;;;;;5094786;28;20020;-72
2022/01/08 04:16:06;;;;;;;1.35;0.60;;;;;;;;;;5088077;28;20383;-72
2022/01/08 04:18:32;;;;;;;5.68;0.70;;;;;;;;;;5095639;28;20077;-71
2022/01/08 04:21:47;;;;;;;5.78;0.60;;;;;;;;;;5095600;28;20039;-71
2022/01/08 04:23:58;;;;;;;2.88;0.70;;;;;;;;;;5094236;28;20055;-71
2022/01/08 04:26:25;;;;;;;2.78;0.88;;;;;;;;;;5075284;28;20035;-72
2022/01/08 04:28:52;;;;;;;3.53;0.90;;;;;;;;;;5089514;28;20107;-72
2022/01/08 04:31:18;;;;;;;1.55;0.80;;;;;;;;;;5093728;28;20478;-72
2022/01/08 04:33:44;;;;;;;4.78;0.98;;;;;;;;;;5096378;28;20031;-72
2022/01/08 04:36:10;;;;;;;4.10;0.80;;;;;;;;;;5090736;28;20049;-72
2022/01/08 04:38:36;;;;;;;4.53;0.60;;;;;;;;;;5083932;28;20103;-71
2022/01/08 04:41:02;;;;;;;3.67;0.80;;;;;;;;;;5085403;28;20060;-72
2022/01/08 04:43:29;;;;;;;1.30;0.70;;;;;;;;;;5087710;28;20032;-72
2022/01/08 04:45:55;;;;;;;2.17;0.80;;;;;;;;;;5085840;28;20050;-71
2022/01/08 04:48:21;;;;;;;3.63;0.80;;;;;;;;;;5085627;28;20029;-71
2022/01/08 04:50:47;;;;;;;1.95;0.80;;;;;;;;;;5070279;28;20044;-71
2022/01/08 04:53:13;;;;;;;1.90;0.70;;;;;;;;;;5089588;28;20487;-71
2022/01/08 04:55:39;;;;;;;3.17;0.73;;;;;;;;;;5091974;28;20438;-72
2022/01/08 04:58:06;;;;;;;4.97;0.95;;;;;;;;;;5072413;28;20475;-72
2022/01/08 05:00:32;;;;;;;2.83;0.63;;;;;;;;;;5070848;28;20055;-72
2022/01/08 05:02:59;;;;;;;1.88;0.80;;;;;;;;;;5089515;28;20498;-69
2022/01/08 05:05:25;;;;;;;3.72;0.90;;;;;;;;;;5077607;28;20721;-69
2022/01/08 05:07:51;;;;;;;7.07;0.80;;;;;;;;;;5097677;28;20034;-69
2022/01/08 05:10:17;;;;;;;5.45;0.70;;;;;;;;;;5091161;28;20486;-70
2022/01/08 05:12:44;;;;;;;1.73;0.60;;;;;;;;;;5068702;28;20023;-69
2022/01/08 05:15:10;;;;;;;7.85;0.95;;;;;;;;;;5084445;28;20039;-69
2022/01/08 05:17:38;;;;;;;1.95;0.70;;;;;;;;;;5087870;28;20028;-69
2022/01/08 05:20:05;;;;;;;1.98;0.70;;;;;;;;;;5084210;28;20060;-69
2022/01/08 05:22:48;;;;;;;1.02;0.60;;;;;;;;;;5085831;28;20073;-69
2022/01/08 05:25:14;;;;;;;7.25;0.95;;;;;;;;;;5096443;28;20024;-69
2022/01/08 05:27:40;;;;;;;4.95;0.73;;;;;;;;;;5084678;28;20391;-69
2022/01/08 05:30:07;;;;;;;7.65;0.98;;;;;;;;;;5090117;28;20492;-69
2022/01/08 05:32:34;;;;;;;1.13;0.75;;;;;;;;;;5083006;28;20051;-68
2022/01/08 05:35:00;;;;;;;3.90;0.98;;;;;;;;;;5077860;28;20052;-69
2022/01/08 05:37:26;;;;;;;2.67;0.70;;;;;;;;;;5070294;28;20020;-70
2022/01/08 05:39:53;;;;;;;3.53;0.80;;;;;;;;;;5068382;28;20032;-69
2022/01/08 05:42:22;;;;;;;1.75;0.70;;;;;;;;;;5089134;28;20068;-69
2022/01/08 05:44:48;;;;;;;2.80;0.70;;;;;;;;;;5080530;28;20028;-69
2022/01/08 05:47:15;;;;;;;4.68;0.73;;;;;;;;;;5075624;28;20051;-69
2022/01/08 05:49:41;;;;;;;2.25;0.90;;;;;;;;;;5082888;28;20128;-70
2022/01/08 05:52:07;;;;;;;2.85;0.90;;;;;;;;;;5095372;28;20020;-70
2022/01/08 05:54:33;;;;;;;1.48;0.70;;;;;;;;;;5082611;28;20390;-70
2022/01/08 05:56:59;;;;;;;1.23;0.60;;;;;;;;;;5085779;28;20020;-70
2022/01/08 05:59:27;;;;;;;3.08;0.70;;;;;;;;;;5080349;28;20375;-70
2022/01/08 06:01:56;;;;;;;1.60;0.65;;;;;;;;;;5094087;28;20518;-71
2022/01/08 06:04:22;;;;;;;4.80;0.82;;;;;;;;;;5114127;28;20472;-70
2022/01/08 06:06:48;;;;;;;3.83;0.70;;;;;;;;;;5113603;28;20110;-70
2022/01/08 06:09:14;;;;;;;3.80;0.80;;;;;;;;;;5111989;28;20032;-71
2022/01/08 06:11:40;;;;;;;3.83;0.60;;;;;;;;;;5085852;28;20391;-70
2022/01/08 06:14:06;;;;;;;1.33;0.70;;;;;;;;;;5086447;28;20479;-71
2022/01/08 06:16:37;;;;;;;1.98;0.77;;;;;;;;;;5083665;28;20111;-70
2022/01/08 06:19:04;;;;;;;7.30;0.77;;;;;;;;;;5085626;28;20028;-69
2022/01/08 06:21:30;;;;;;;4.55;0.70;;;;;;;;;;5087957;28;20379;-70
2022/01/08 06:23:56;;;;;;;4.05;0.60;;;;;;;;;;5070896;28;20024;-69
2022/01/08 06:26:22;;;;;;;3.28;0.80;;;;;;;;;;5069924;28;20034;-70
2022/01/08 06:28:49;;;;;;;5.38;0.60;;;;;;;;;;5084794;28;20048;-69
2022/01/08 06:31:15;;;;;;;2.08;0.60;;;;;;;;;;5089825;28;20082;-69
2022/01/08 06:33:41;;;;;;;3.88;0.70;;;;;;;;;;5063899;28;20473;-71
2022/01/08 06:36:07;;;;;;;2.30;0.65;;;;;;;;;;5086217;28;20031;-72
2022/01/08 06:38:33;;;;;;;6.53;0.77;;;;;;;;;;5068457;28;20333;-70
2022/01/08 06:40:59;;;;;;;2.30;0.80;;;;;;;;;;5066277;28;20032;-70
2022/01/08 06:43:25;;;;;;;6.25;0.82;;;;;;;;;;5075144;28;20028;-72
2022/01/08 06:45:51;;;;;;;7.53;1.00;;;;;;;;;;5083558;28;20526;-71
2022/01/08 06:48:17;;;;;;;1.85;0.55;;;;;;;;;;5089573;28;20028;-71
2022/01/08 06:50:43;;;;;;;10.48;0.90;;;;;;;;;;5077938;28;20047;-69
2022/01/08 06:53:09;;;;;;;2.75;0.65;;;;;;;;;;5067461;28;20035;-70
2022/01/08 06:55:36;;;;;;;9.98;0.90;;;;;;;;;;5086172;28;20058;-70
2022/01/08 06:58:02;;;;;;;2.13;0.57;;;;;;;;;;5085180;28;20020;-70
2022/01/08 07:00:28;;;;;;;8.90;0.75;;;;;;;;;;5076881;28;20039;-71
2022/01/08 07:02:54;;;;;;;10.20;0.80;;;;;;;;;;5075307;28;20108;-72
2022/01/08 07:05:20;;;;;;;2.83;0.68;;;;;;;;;;5099093;28;20023;-70
2022/01/08 07:07:46;;;;;;;17.60;0.90;;;;;;;;;;5065191;28;20023;-71
2022/01/08 07:10:12;;;;;;;8.07;0.73;;;;;;;;;;5091138;28;20039;-72
2022/01/08 07:12:38;;;;;;;8.45;1.08;;;;;;;;;;5081244;28;20025;-75
2022/01/08 07:15:05;;;;;;;18.65;0.77;;;;;;;;;;5085054;28;20066;-71
2022/01/08 07:17:31;;;;;;;6.63;1.00;;;;;;;;;;5095208;28;20078;-71
2022/01/08 07:19:57;;;;;;;19.05;0.80;;;;;;;;;;5064307;28;20031;-71
2022/01/08 07:22:23;;;;;;;9.25;1.15;;;;;;;;;;5086113;28;20028;-71
2022/01/08 07:24:49;;;;;;;30.27;1.67;;;;;;;;;;5092766;28;20040;-72
2022/01/08 07:27:15;;;;;;;27.50;1.70;;;;;;;;;;5066649;28;20131;-72
2022/01/08 07:29:40;;;;;;;16.17;1.27;;;;;;;;;;5065076;28;20032;-72
2022/01/08 07:32:07;;;;;;;33.88;2.08;;;;;;;;;;5059628;28;20100;-72
2022/01/08 07:34:33;;;;;;;27.13;1.15;;;;;;;;;;5069916;28;20073;-71
2022/01/08 07:36:59;;;;;;;18.48;1.10;;;;;;;;;;5073439;28;20036;-69
2022/01/08 07:39:25;;;;;;;30.15;2.00;;;;;;;;;;5074583;28;20119;-68
2022/01/08 07:41:51;;;;;;;20.42;1.17;;;;;;;;;;5075704;28;20109;-69
2022/01/08 07:44:17;;;;;;;18.27;1.40;;;;;;;;;;5074574;28;20037;-70
2022/01/08 07:46:43;;;;;;;13.15;1.08;;;;;;;;;;5076077;28;20467;-69
2022/01/08 07:49:09;;;;;;;13.75;1.17;;;;;;;;;;5075733;28;20032;-70
2022/01/08 07:51:35;;;;;;;13.52;1.48;;;;;;;;;;5072391;28;20028;-68
2022/01/08 07:54:01;;;;;;;10.10;1.20;;;;;;;;;;5083186;28;20082;-70
2022/01/08 07:56:27;;;;;;;12.85;1.67;;;;;;;;;;5073083;28;20397;-71
2022/01/08 07:58:53;;;;;;;7.80;1.48;;;;;;;;;;5085270;28;20024;-70
2022/01/08 08:01:21;;;;;;;12.07;1.50;;;;;;;;;;5068569;28;20059;-69
2022/01/08 08:03:47;;;;;;;11.73;1.52;;;;;;;;;;5073881;28;20032;-68
2022/01/08 08:06:13;;;;;;;5.13;1.65;;;;;;;;;;5091953;28;20483;-68
2022/01/08 08:08:39;;;;;;;7.60;1.42;;;;;;;;;;5095730;28;20141;-67
2022/01/08 08:11:05;;;;;;;6.88;1.25;;;;;;;;;;5095574;28;20035;-69
2022/01/08 08:13:31;;;;;;;7.28;1.60;;;;;;;;;;5096061;28;20024;-70
2022/01/08 08:15:57;;;;;;;12.55;1.52;;;;;;;;;;5083389;28;20028;-69
2022/01/08 08:18:23;;;;;;;17.70;1.58;;;;;;;;;;5076123;28;20016;-69
2022/01/08 08:20:49;;;;;;;8.07;1.65;;;;;;;;;;5084279;28;20030;-69
2022/01/08 08:23:15;;;;;;;5.65;1.33;;;;;;;;;;5068815;28;20712;-67
2022/01/08 08:25:41;;;;;;;7.97;1.42;;;;;;;;;;5073691;28;20034;-68
2022/01/08 08:28:07;;;;;;;7.68;1.13;;;;;;;;;;5092653;28;20040;-67
2022/01/08 08:30:34;;;;;;;7.70;1.48;;;;;;;;;;5087577;28;20037;-68
2022/01/08 08:33:00;;;;;;;7.45;1.48;;;;;;;;;;5083870;28;20035;-68
2022/01/08 08:35:26;;;;;;;4.65;1.52;;;;;;;;;;5091534;28;20090;-68
2022/01/08 08:37:52;;;;;;;4.68;1.10;;;;;;;;;;5074751;28;20086;-68
2022/01/08 08:40:18;;;;;;;4.78;1.50;;;;;;;;;;5088949;28;20032;-68
2022/01/08 08:42:44;;;;;;;5.13;1.40;;;;;;;;;;5095025;28;20066;-65
2022/01/08 08:45:11;;;;;;;6.03;1.70;;;;;;;;;;5095066;28;20476;-69
2022/01/08 08:47:39;;;;;;;7.30;1.50;;;;;;;;;;5093216;28;20038;-67
2022/01/08 08:50:06;;;;;;;11.25;1.60;;;;;;;;;;5103080;28;20049;-67
2022/01/08 08:52:32;;;;;;;6.45;1.30;;;;;;;;;;5087664;28;20028;-70
2022/01/08 08:54:58;;;;;;;4.20;1.60;;;;;;;;;;5092631;28;20028;-70
2022/01/08 08:57:25;;;;;;;4.63;1.52;;;;;;;;;;5076217;28;20764;-71
2022/01/08 08:59:51;;;;;;;4.35;1.45;;;;;;;;;;5076878;28;20035;-71
2022/01/08 09:02:17;;;;;;;5.90;1.20;;;;;;;;;;5075759;28;20032;-69
2022/01/08 09:04:43;;;;;;;9.65;1.52;;;;;;;;;;5088560;28;20020;-69
2022/01/08 09:07:09;;;;;;;8.00;1.77;;;;;;;;;;5090116;28;20024;-69
2022/01/08 09:09:35;;;;;;;9.15;1.60;;;;;;;;;;5093516;28;20058;-69
2022/01/08 09:12:01;;;;;;;7.70;1.80;;;;;;;;;;5098565;28;20356;-69
2022/01/08 09:14:27;;;;;;;3.72;1.20;;;;;;;;;;5094461;28;20513;-69
2022/01/08 09:16:59;;;;;;;3.08;1.17;;;;;;;;;;5084648;28;20177;-69
2022/01/08 09:19:26;;;;;;;9.35;1.90;;;;;;;;;;5092872;28;20498;-70
2022/01/08 09:21:52;;;;;;;11.13;2.10;;;;;;;;;;5094473;28;20528;-67
2022/01/08 09:24:19;;;;;;;3.20;1.30;;;;;;;;;;5113042;28;20647;-67
2022/01/08 09:26:45;;;;;;;6.55;1.45;;;;;;;;;;5113051;28;20105;-66
2022/01/08 09:29:11;;;;;;;4.18;1.50;;;;;;;;;;5078174;28;20487;-69
2022/01/08 09:31:38;;;;;;;8.15;1.80;;;;;;;;;;5092979;28;20027;-66
2022/01/08 09:34:04;;;;;;;3.25;1.40;;;;;;;;;;5092395;28;20376;-67
2022/01/08 09:36:31;;;;;;;3.63;1.35;;;;;;;;;;5094054;28;20040;-69
2022/01/08 09:38:57;;;;;;;4.15;1.42;;;;;;;;;;5092280;28;20020;-68
2022/01/08 09:41:23;;;;;;;4.95;1.45;;;;;;;;;;5112442;28;20031;-68
2022/01/08 09:43:49;;;;;;;8.48;1.50;;;;;;;;;;5112564;28;20044;-68
2022/01/08 09:46:16;;;;;;;7.18;2.10;;;;;;;;;;5112669;28;20025;-67
2022/01/08 09:48:42;;;;;;;6.20;1.90;;;;;;;;;;5112926;28;20031;-69
2022/01/08 09:51:08;;;;;;;7.72;1.73;;;;;;;;;;5109345;28;20032;-67
2022/01/08 09:53:36;;;;;;;2.45;1.27;;;;;;;;;;5091459;28;20052;-67
2022/01/08 09:56:02;;;;;;;2.88;1.45;;;;;;;;;;5074019;28;20039;-67
2022/01/08 09:58:28;;;;;;;4.72;1.30;;;;;;;;;;5091770;28;20032;-67
2022/01/08 10:00:54;;;;;;;9.70;1.80;;;;;;;;;;5092959;28;20024;-67
2022/01/08 10:03:20;;;;;;;12.65;1.70;;;;;;;;;;5093651;28;20038;-67
2022/01/08 10:05:47;;;;;;;5.82;1.80;;;;;;;;;;5093400;28;20116;-67
2022/01/08 10:08:15;;;;;;;5.18;1.77;;;;;;;;;;5093433;28;20081;-67
2022/01/08 10:10:41;;;;;;;5.80;1.67;;;;;;;;;;5093602;28;20035;-70
2022/01/08 10:13:21;;;;;;;3.53;1.48;;;;;;;;;;5093488;28;20050;-65
2022/01/08 10:18:36;;;;;;;3.20;1.70;;;;;;;;;;5091909;28;20035;-68
2022/01/08 10:21:17;;;;;;;5.85;1.65;;;;;;;;;;5092557;28;20348;-68
2022/01/08 10:23:47;;;;;;;3.28;1.55;;;;;;;;;;5076492;28;20035;-67
2022/01/08 10:26:15;;;;;;;2.58;1.35;;;;;;;;;;5072187;28;20418;-67
2022/01/08 10:28:41;;;;;;;3.40;1.30;;;;;;;;;;5088793;28;20092;-67
2022/01/08 10:31:15;;;;;;;4.35;1.40;;;;;;;;;;5103749;28;20035;-66
2022/01/08 10:33:48;;;;;;;3.70;1.58;;;;;;;;;;5101029;28;20139;-66
2022/01/08 10:36:15;;;;;;;3.88;1.52;;;;;;;;;;5092222;28;20078;-67
2022/01/08 10:38:41;;;;;;;3.22;1.50;;;;;;;;;;5074515;28;20448;-66
2022/01/08 10:41:16;;;;;;;3.58;1.60;;;;;;;;;;5074891;28;20032;-66
2022/01/08 10:43:44;;;;;;;3.97;1.60;;;;;;;;;;5092869;28;20077;-67
2022/01/08 10:46:12;;;;;;;6.78;1.42;;;;;;;;;;5074586;28;20368;-67
2022/01/08 10:48:42;;;;;;;2.33;1.40;;;;;;;;;;5092875;28;20070;-68
2022/01/08 10:51:12;;;;;;;4.45;1.65;;;;;;;;;;5092860;28;20114;-66
2022/01/08 10:53:55;;;;;;;6.47;1.42;;;;;;;;;;5093016;28;20024;-67
2022/01/08 10:56:44;;;;;;;2.80;1.50;;;;;;;;;;5091741;28;20047;-66
2022/01/08 10:59:12;;;;;;;3.83;1.77;;;;;;;;;;5081719;28;20094;-68
2022/01/08 11:01:37;;;;;;;8.20;1.75;;;;;;;;;;5092634;28;20031;-66
2022/01/08 11:04:04;;;;;;;2.85;1.25;;;;;;;;;;5097312;28;20095;-67
2022/01/08 11:06:30;;;;;;;2.75;1.60;;;;;;;;;;5092280;28;20020;-65
2022/01/08 11:09:00;;;;;;;3.35;1.83;;;;;;;;;;5092518;28;20466;-67
2022/01/08 11:11:30;;;;;;;5.35;1.70;;;;;;;;;;5098173;28;20046;-65
2022/01/08 11:14:05;;;;;;;3.13;1.48;;;;;;;;;;5114888;28;20011;-67
2022/01/08 11:16:31;;;;;;;5.40;1.63;;;;;;;;;;5106815;28;20485;-67
2022/01/08 11:18:59;;;;;;;3.05;1.48;;;;;;;;;;5093598;28;20360;-68
2022/01/08 11:21:29;;;;;;;3.10;1.30;;;;;;;;;;5096601;28;20404;-68
2022/01/08 11:23:57;;;;;;;8.55;1.73;;;;;;;;;;5096733;28;20387;-68
2022/01/08 11:26:24;;;;;;;3.13;1.52;;;;;;;;;;5096503;28;20028;-67
2022/01/08 11:28:50;;;;;;;3.30;1.42;;;;;;;;;;5096291;28;20101;-71
2022/01/08 11:31:17;;;;;;;2.88;1.60;;;;;;;;;;5096533;28;20467;-72
2022/01/08 11:33:48;;;;;;;5.88;1.77;;;;;;;;;;5096253;28;20024;-70
2022/01/08 11:36:15;;;;;;;5.18;1.50;;;;;;;;;;5096445;28;20090;-72
2022/01/08 11:38:44;;;;;;;5.30;1.75;;;;;;;;;;5115714;28;20032;-71
2022/01/08 11:41:10;;;;;;;4.38;1.50;;;;;;;;;;5098477;28;20031;-69
2022/01/08 11:43:36;;;;;;;6.32;1.42;;;;;;;;;;5098351;28;20034;-69
2022/01/08 11:46:07;;;;;;;3.92;1.77;;;;;;;;;;5116784;28;20023;-69
2022/01/08 11:48:39;;;;;;;2.20;1.40;;;;;;;;;;5104559;28;20069;-67
2022/01/08 11:51:06;;;;;;;5.53;1.83;;;;;;;;;;5096605;28;20036;-71
2022/01/08 11:53:33;;;;;;;29.67;1.70;;;;;;;;;;5096697;28;20031;-68
2022/01/08 11:56:02;;;;;;;7.68;1.58;;;;;;;;;;5095885;28;20039;-72
2022/01/08 11:58:33;;;;;;;22.42;2.13;;;;;;;;;;5078121;28;20391;-72
2022/01/08 12:01:06;;;;;;;15.90;2.15;;;;;;;;;;5078004;28;20791;-73
2022/01/08 12:03:34;;;;;;;14.02;2.00;;;;;;;;;;5096062;28;20028;-68
2022/01/08 12:06:25;;;;;;;17.58;1.95;;;;;;;;;;5075962;28;20483;-69
2022/01/08 12:08:51;;;;;;;18.15;1.95;;;;;;;;;;5095314;28;20497;-71
2022/01/08 12:11:18;;;;;;;20.08;1.90;;;;;;;;;;5095585;28;20483;-69
2022/01/08 12:13:47;;;;;;;7.80;1.70;;;;;;;;;;5095374;28;20039;-70
2022/01/08 12:16:33;;;;;;;14.88;2.17;;;;;;;;;;5076649;28;20502;-68
2022/01/08 12:18:59;;;;;;;12.88;1.98;;;;;;;;;;5095251;28;20066;-71
2022/01/08 12:21:31;;;;;;;8.25;1.60;;;;;;;;;;5077373;28;20062;-67
2022/01/08 12:24:00;;;;;;;12.63;1.52;;;;;;;;;;5095023;28;20039;-68
2022/01/08 12:26:26;;;;;;;8.80;1.38;;;;;;;;;;5080117;28;20069;-69
2022/01/08 12:28:53;;;;;;;10.02;1.50;;;;;;;;;;5076585;28;20040;-70
2022/01/08 12:31:22;;;;;;;10.75;1.40;;;;;;;;;;5087437;28;20039;-67
2022/01/08 12:34:14;;;;;;;9.95;1.85;;;;;;;;;;5093869;28;20059;-66
2022/01/08 12:37:13;;;;;;;3.50;1.25;;;;;;;;;;5079438;28;20545;-67
2022/01/08 12:39:48;;;;;;;11.02;1.40;;;;;;;;;;5066864;28;20044;-66
2022/01/08 12:42:20;;;;;;;5.38;1.38;;;;;;;;;;5056767;28;20024;-68
2022/01/08 12:44:59;;;;;;;9.52;1.23;;;;;;;;;;5074429;28;20032;-69
2022/01/08 12:47:44;;;;;;;5.28;1.27;;;;;;;;;;5074992;28;20039;-69
2022/01/08 12:50:28;;;;;;;6.18;1.20;;;;;;;;;;5088677;28;20052;-70
2022/01/08 12:53:08;;;;;;;5.25;1.17;;;;;;;;;;5091259;28;20020;-69
2022/01/08 12:55:34;;;;;;;2.75;0.95;;;;;;;;;;5091426;28;20070;-68
2022/01/08 12:58:01;;;;;;;5.82;1.10;;;;;;;;;;5094257;28;20051;-69
2022/01/08 13:00:27;;;;;;;6.28;1.00;;;;;;;;;;5076102;28;20527;-69
2022/01/08 13:02:53;;;;;;;5.75;1.48;;;;;;;;;;5094157;28;20036;-68
2022/01/08 13:05:19;;;;;;;5.90;1.27;;;;;;;;;;5094217;28;20532;-68
2022/01/08 13:07:48;;;;;;;4.18;1.27;;;;;;;;;;5094201;28;20075;-68
2022/01/08 13:10:16;;;;;;;4.95;1.48;;;;;;;;;;5093280;28;20032;-70
2022/01/08 13:12:42;;;;;;;2.95;1.20;;;;;;;;;;5096192;28;20020;-69
2022/01/08 13:15:08;;;;;;;6.47;1.20;;;;;;;;;;5093477;28;20032;-69
2022/01/08 13:17:34;;;;;;;3.65;1.20;;;;;;;;;;5094024;28;20030;-66
2022/01/08 13:20:07;;;;;;;13.65;1.38;;;;;;;;;;5094219;28;20023;-70
2022/01/08 13:22:33;;;;;;;;;;;;;;;;;;5095413;28;20016;-68
2022/01/08 13:24:59;;;;;;;16.80;1.83;;;;;;;;;;5094610;28;19914;-71
2022/01/08 13:27:26;;;;;;;14.38;1.50;;;;;;;;;;5094274;28;20045;-67
2022/01/08 13:29:55;;;;;;;47.75;2.53;;;;;;;;;;5076446;28;20036;-65
2022/01/08 13:32:22;;;;;;;34.40;2.03;;;;;;;;;;5094205;28;20336;-71
2022/01/08 13:34:53;;;;;;;22.05;2.42;;;;;;;;;;5094354;28;20478;-65
2022/01/08 13:37:23;;;;;;;48.17;2.25;;;;;;;;;;5093936;28;20028;-67
2022/01/08 13:39:56;;;;;;;46.05;2.53;;;;;;;;;;5094251;28;20486;-68
2022/01/08 13:42:30;;;;;;;21.60;1.80;;;;;;;;;;5093443;28;20036;-69
2022/01/08 13:45:01;;;;;;;41.15;2.50;;;;;;;;;;5075938;28;20379;-68
2022/01/08 13:47:29;;;;;;;38.92;2.60;;;;;;;;;;5096031;28;20447;-65
2022/01/08 13:49:56;;;;;;;52.58;2.40;;;;;;;;;;5093902;28;20484;-65
2022/01/08 13:52:33;;;;;;;34.05;3.33;;;;;;;;;;5093749;28;20030;-64
2022/01/08 13:55:17;;;;;;;30.98;2.30;;;;;;;;;;5077880;28;20074;-66
2022/01/08 13:57:45;;;;;;;28.48;3.08;;;;;;;;;;5092995;28;20080;-64
2022/01/08 14:00:15;;;;;;;28.17;2.95;;;;;;;;;;5093894;28;20080;-64
2022/01/08 14:02:41;;;;;;;17.92;1.98;;;;;;;;;;5093562;28;20457;-67
2022/01/08 14:05:07;;;;;;;48.28;2.83;;;;;;;;;;5093174;28;20028;-65
2022/01/08 14:07:41;;;;;;;32.25;2.58;;;;;;;;;;5093190;28;20386;-63
2022/01/08 14:10:07;;;;;;;72.32;3.83;;;;;;;;;;5093695;28;20379;-71
2022/01/08 14:12:33;;;;;;;30.63;2.92;;;;;;;;;;5092454;28;20020;-65
2022/01/08 14:15:04;;;;;;;49.55;2.72;;;;;;;;;;5103011;28;20101;-67
2022/01/08 14:17:30;;;;;;;68.13;3.20;;;;;;;;;;5093526;28;20024;-64
2022/01/08 14:20:00;;;;;;;37.88;2.50;;;;;;;;;;5093568;28;20024;-64
2022/01/08 14:22:27;;;;;;;44.80;3.00;;;;;;;;;;5093037;28;20459;-71
2022/01/08 14:24:54;;;;;;;27.20;3.55;;;;;;;;;;5093230;28;20352;-68
2022/01/08 14:27:22;;;;;;;17.85;1.95;;;;;;;;;;5093255;28;20040;-68
2022/01/08 14:30:04;;;;;;;43.20;4.55;;;;;;;;;;5074337;28;20077;-70
2022/01/08 14:32:31;;;;;;;48.30;2.30;;;;;;;;;;5095567;28;20013;-72
2022/01/08 14:35:01;;;;;;;16.52;2.30;;;;;;;;;;5093982;28;20036;-70
2022/01/08 14:37:32;;;;;;;30.10;2.70;;;;;;;;;;5091332;28;20141;-71
2022/01/08 14:40:02;;;;;;;26.95;2.20;;;;;;;;;;5085103;28;20100;-71
2022/01/08 14:42:29;;;;;;;10.55;1.77;;;;;;;;;;5096392;28;20418;-68
2022/01/08 14:45:01;;;;;;;3.25;1.50;;;;;;;;;;5079831;28;20032;-72
2022/01/08 14:47:34;;;;;;;8.03;1.70;;;;;;;;;;5094434;28;20028;-72
2022/01/08 14:50:00;;;;;;;8.93;1.60;;;;;;;;;;5106279;28;20276;-73
2022/01/08 14:52:26;;;;;;;2.72;1.30;;;;;;;;;;5079287;28;20382;-73
2022/01/08 14:54:53;;;;;;;4.32;1.35;;;;;;;;;;5083318;28;20039;-69
2022/01/08 14:57:19;;;;;;;2.60;1.35;;;;;;;;;;5085205;28;20112;-71
2022/01/08 14:59:45;;;;;;;2.33;1.23;;;;;;;;;;5094055;28;20475;-69
2022/01/08 15:02:11;;;;;;;3.28;1.55;;;;;;;;;;5091584;28;20028;-73
2022/01/08 15:04:37;;;;;;;4.50;1.30;;;;;;;;;;5092818;28;20024;-73